createdAt,value
2019-01-30T00:00:53.902Z,4.50
2019-01-30T00:01:53.867Z,3.90
2019-01-30T00:02:53.692Z,4.50
2019-01-30T00:03:53.742Z,5.70
2019-01-30T00:04:53.701Z,7.50
2019-01-30T00:05:53.880Z,6.90
2019-01-30T00:06:53.669Z,7.80
2019-01-30T00:07:53.657Z,7.00
2019-01-30T00:08:53.629Z,9.20
2019-01-30T00:09:53.637Z,14.70
2019-01-30T00:10:53.637Z,21.90
2019-01-30T00:11:53.640Z,22.70
2019-01-30T00:12:53.613Z,42.80
2019-01-30T00:13:53.581Z,37.00
2019-01-30T00:14:53.588Z,60.50
2019-01-30T00:15:56.470Z,164.50
2019-01-30T00:16:53.733Z,45.10
2019-01-30T00:17:53.596Z,26.80
2019-01-30T00:18:53.547Z,10.10
2019-01-30T00:19:53.569Z,8.40
2019-01-30T00:20:53.665Z,4.80
2019-01-30T00:21:53.491Z,4.80
2019-01-30T00:22:53.741Z,5.20
2019-01-30T00:23:53.472Z,4.60
2019-01-30T00:24:53.557Z,4.90
2019-01-30T00:25:53.475Z,8.10
2019-01-30T00:26:53.504Z,6.60
2019-01-30T00:27:53.421Z,6.20
2019-01-30T00:28:53.653Z,6.10
2019-01-30T00:30:03.668Z,9.70
2019-01-30T00:30:54.423Z,11.00
2019-01-30T00:31:53.597Z,49.70
2019-01-30T00:32:53.397Z,52.00
2019-01-30T00:33:53.426Z,45.70
2019-01-30T00:34:53.411Z,49.30
2019-01-30T00:35:53.931Z,30.10
2019-01-30T00:36:53.348Z,13.10
2019-01-30T00:37:53.335Z,65.20
2019-01-30T00:38:53.507Z,53.50
2019-01-30T00:39:53.446Z,19.90
2019-01-30T00:41:00.534Z,15.70
2019-01-30T00:41:53.318Z,9.80
2019-01-30T00:42:53.503Z,5.60
2019-01-30T00:43:53.267Z,4.80
2019-01-30T00:44:53.579Z,6.10
2019-01-30T00:45:53.377Z,3.80
2019-01-30T00:46:53.457Z,6.20
2019-01-30T00:47:53.248Z,7.40
2019-01-30T00:48:53.503Z,7.60
2019-01-30T00:49:57.711Z,8.10
2019-01-30T00:50:53.212Z,20.20
2019-01-30T00:51:53.512Z,11.60
2019-01-30T00:52:53.254Z,4.10
2019-01-30T00:53:55.795Z,5.90
2019-01-30T00:54:53.201Z,7.50
2019-01-30T00:55:53.239Z,7.20
2019-01-30T00:56:53.201Z,6.80
2019-01-30T00:57:53.117Z,10.50
2019-01-30T00:58:53.094Z,10.50
2019-01-30T00:59:53.164Z,9.80
2019-01-30T01:00:53.214Z,10.20
2019-01-30T01:01:53.235Z,11.70
2019-01-30T01:02:53.051Z,8.20
2019-01-30T01:03:54.175Z,7.60
2019-01-30T01:04:53.241Z,8.70
2019-01-30T01:05:53.232Z,10.40
2019-01-30T01:06:53.108Z,8.00
2019-01-30T01:07:54.057Z,8.60
2019-01-30T01:08:53.077Z,8.20
2019-01-30T01:09:53.005Z,6.50
2019-01-30T01:10:53.148Z,7.60
2019-01-30T01:11:53.017Z,6.50
2019-01-30T01:12:53.008Z,7.30
2019-01-30T01:13:52.932Z,18.50
2019-01-30T01:14:53.003Z,22.20
2019-01-30T01:15:53.246Z,32.90
2019-01-30T01:16:52.982Z,39.10
2019-01-30T01:17:55.108Z,37.60
2019-01-30T01:18:52.901Z,32.90
2019-01-30T01:19:52.875Z,47.90
2019-01-30T01:20:52.884Z,63.90
2019-01-30T01:21:52.844Z,82.30
2019-01-30T01:22:52.931Z,59.90
2019-01-30T01:23:52.958Z,37.30
2019-01-30T01:24:52.813Z,32.40
2019-01-30T01:25:52.892Z,14.70
2019-01-30T01:26:52.797Z,13.70
2019-01-30T01:27:52.817Z,5.80
2019-01-30T01:28:55.425Z,4.40
2019-01-30T01:29:52.775Z,4.60
2019-01-30T01:30:52.756Z,4.90
2019-01-30T01:31:54.159Z,6.80
2019-01-30T01:32:53.326Z,6.60
2019-01-30T01:33:52.974Z,8.80
2019-01-30T01:34:52.804Z,6.90
2019-01-30T01:35:52.695Z,8.40
2019-01-30T01:36:52.687Z,10.50
2019-01-30T01:37:52.800Z,6.70
2019-01-30T01:38:52.878Z,6.10
2019-01-30T01:39:53.121Z,11.30
2019-01-30T01:40:53.534Z,19.40
2019-01-30T01:41:52.696Z,18.30
2019-01-30T01:42:53.337Z,43.40
2019-01-30T01:43:52.771Z,30.60
2019-01-30T01:44:52.763Z,17.60
2019-01-30T01:45:52.691Z,14.60
2019-01-30T01:46:54.030Z,11.20
2019-01-30T01:47:52.673Z,7.30
2019-01-30T01:48:52.592Z,6.80
2019-01-30T01:49:52.826Z,6.80
2019-01-30T01:50:52.533Z,4.70
2019-01-30T01:51:52.601Z,5.10
2019-01-30T01:52:52.523Z,8.60
2019-01-30T01:53:52.571Z,8.80
2019-01-30T01:54:52.507Z,6.40
2019-01-30T01:55:52.519Z,7.10
2019-01-30T01:56:53.196Z,10.10
2019-01-30T01:57:53.187Z,12.30
2019-01-30T01:58:52.445Z,20.80
2019-01-30T01:59:52.444Z,22.80
2019-01-30T02:00:52.528Z,23.50
2019-01-30T02:01:52.502Z,26.10
2019-01-30T02:02:52.400Z,29.40
2019-01-30T02:03:52.887Z,20.60
2019-01-30T02:04:52.841Z,11.90
2019-01-30T02:05:52.372Z,11.00
2019-01-30T02:06:52.377Z,9.00
2019-01-30T02:07:52.444Z,7.20
2019-01-30T02:08:52.395Z,6.70
2019-01-30T02:09:52.357Z,5.00
2019-01-30T02:10:53.342Z,6.10
2019-01-30T02:11:53.043Z,6.10
2019-01-30T02:12:52.386Z,6.30
2019-01-30T02:13:53.966Z,4.90
2019-01-30T02:14:52.536Z,5.00
2019-01-30T02:15:52.253Z,6.20
2019-01-30T02:16:52.338Z,6.50
2019-01-30T02:17:52.342Z,5.80
2019-01-30T02:18:52.382Z,6.80
2019-01-30T02:19:54.878Z,5.80
2019-01-30T02:20:52.202Z,5.60
2019-01-30T02:21:52.275Z,7.40
2019-01-30T02:22:52.192Z,6.10
2019-01-30T02:23:52.163Z,5.60
2019-01-30T02:24:52.178Z,6.00
2019-01-30T02:25:52.166Z,5.00
2019-01-30T02:26:52.139Z,6.40
2019-01-30T02:27:52.169Z,5.60
2019-01-30T02:28:52.549Z,6.00
2019-01-30T02:29:52.101Z,5.60
2019-01-30T02:30:52.154Z,5.20
2019-01-30T02:31:52.234Z,6.40
2019-01-30T02:32:52.119Z,6.00
2019-01-30T02:33:52.187Z,5.10
2019-01-30T02:34:52.670Z,5.20
2019-01-30T02:35:56.544Z,5.50
2019-01-30T02:36:52.465Z,5.20
2019-01-30T02:37:52.094Z,5.40
2019-01-30T02:38:52.296Z,5.30
2019-01-30T02:39:55.099Z,5.50
2019-01-30T02:40:55.236Z,5.80
2019-01-30T02:41:52.523Z,4.60
2019-01-30T02:42:52.219Z,6.00
2019-01-30T02:43:52.334Z,6.00
2019-01-30T02:44:51.985Z,5.40
2019-01-30T02:45:51.916Z,5.90
2019-01-30T02:46:52.199Z,4.40
2019-01-30T02:47:52.010Z,4.70
2019-01-30T02:48:53.522Z,6.50
2019-01-30T02:49:53.083Z,6.60
2019-01-30T02:50:54.247Z,5.20
2019-01-30T02:51:56.937Z,5.20
2019-01-30T02:52:51.997Z,5.70
2019-01-30T02:53:52.787Z,4.50
2019-01-30T02:54:51.909Z,5.80
2019-01-30T02:55:51.896Z,5.30
2019-01-30T02:56:52.190Z,5.20
2019-01-30T02:57:51.992Z,5.10
2019-01-30T02:58:53.328Z,5.20
2019-01-30T02:59:51.901Z,5.50
2019-01-30T03:00:58.872Z,4.90
2019-01-30T03:01:52.844Z,6.40
2019-01-30T03:02:51.787Z,5.90
2019-01-30T03:03:51.776Z,5.80
2019-01-30T03:04:51.789Z,13.50
2019-01-30T03:05:51.759Z,17.20
2019-01-30T03:06:51.898Z,21.90
2019-01-30T03:07:51.688Z,21.40
2019-01-30T03:08:52.362Z,18.20
2019-01-30T03:09:51.684Z,16.50
2019-01-30T03:10:51.954Z,20.50
2019-01-30T03:11:51.987Z,44.30
2019-01-30T03:12:51.858Z,27.70
2019-01-30T03:13:54.797Z,13.50
2019-01-30T03:14:51.597Z,13.20
2019-01-30T03:15:52.257Z,10.90
2019-01-30T03:16:51.709Z,10.10
2019-01-30T03:17:51.680Z,7.20
2019-01-30T03:18:51.833Z,7.60
2019-01-30T03:19:52.258Z,6.90
2019-01-30T03:20:51.537Z,8.30
2019-01-30T03:21:51.665Z,6.00
2019-01-30T03:22:51.861Z,8.40
2019-01-30T03:23:54.735Z,8.00
2019-01-30T03:24:56.118Z,7.90
2019-01-30T03:25:52.645Z,12.30
2019-01-30T03:26:54.743Z,11.50
2019-01-30T03:27:52.465Z,14.40
2019-01-30T03:28:51.948Z,8.30
2019-01-30T03:29:51.513Z,13.00
2019-01-30T03:30:51.446Z,31.00
2019-01-30T03:31:51.554Z,52.40
2019-01-30T03:32:51.574Z,44.80
2019-01-30T03:33:51.462Z,41.20
2019-01-30T03:34:51.479Z,68.70
2019-01-30T03:35:51.431Z,49.10
2019-01-30T03:36:51.545Z,18.50
2019-01-30T03:37:51.385Z,12.50
2019-01-30T03:38:51.891Z,7.60
2019-01-30T03:39:51.832Z,7.60
2019-01-30T03:40:51.746Z,5.20
2019-01-30T03:41:51.399Z,5.60
2019-01-30T03:42:51.329Z,4.90
2019-01-30T03:43:51.355Z,5.50
2019-01-30T03:44:51.323Z,7.20
2019-01-30T03:45:51.294Z,9.50
2019-01-30T03:46:51.424Z,9.20
2019-01-30T03:47:51.327Z,11.00
2019-01-30T03:48:51.291Z,11.00
2019-01-30T03:49:51.354Z,10.20
2019-01-30T03:50:51.229Z,17.20
2019-01-30T03:51:51.449Z,21.40
2019-01-30T03:52:51.255Z,24.70
2019-01-30T03:53:51.333Z,39.80
2019-01-30T03:54:51.537Z,31.10
2019-01-30T03:55:51.861Z,21.80
2019-01-30T03:56:51.679Z,10.50
2019-01-30T03:57:51.368Z,12.90
2019-01-30T03:58:51.467Z,10.40
2019-01-30T03:59:51.213Z,6.90
2019-01-30T04:00:51.472Z,8.80
2019-01-30T04:01:51.294Z,7.30
2019-01-30T04:02:51.089Z,5.60
2019-01-30T04:03:51.834Z,5.50
2019-01-30T04:04:51.400Z,6.30
2019-01-30T04:05:51.098Z,5.00
2019-01-30T04:06:55.213Z,4.70
2019-01-30T04:07:57.675Z,4.50
2019-01-30T04:08:56.895Z,6.10
2019-01-30T04:09:53.262Z,6.20
2019-01-30T04:10:53.197Z,5.40
2019-01-30T04:11:51.661Z,6.30
2019-01-30T04:12:51.298Z,6.50
2019-01-30T04:13:52.179Z,6.60
2019-01-30T04:14:50.963Z,9.50
2019-01-30T04:15:51.977Z,17.00
2019-01-30T04:16:51.227Z,15.70
2019-01-30T04:17:51.043Z,16.40
2019-01-30T04:18:51.392Z,14.20
2019-01-30T04:19:54.342Z,22.80
2019-01-30T04:20:57.049Z,13.00
2019-01-30T04:21:51.997Z,7.40
2019-01-30T04:22:51.269Z,5.70
2019-01-30T04:23:51.014Z,6.80
2019-01-30T04:24:50.983Z,5.70
2019-01-30T04:25:51.252Z,6.90
2019-01-30T04:26:50.909Z,5.10
2019-01-30T04:27:50.845Z,6.80
2019-01-30T04:28:52.239Z,5.90
2019-01-30T04:29:50.883Z,8.80
2019-01-30T04:30:50.861Z,7.50
2019-01-30T04:31:53.831Z,10.10
2019-01-30T04:32:58.457Z,8.20
2019-01-30T04:33:50.770Z,12.40
2019-01-30T04:34:50.967Z,15.60
2019-01-30T04:35:51.000Z,15.30
2019-01-30T04:36:55.200Z,9.10
2019-01-30T04:37:50.959Z,14.30
2019-01-30T04:38:50.703Z,9.70
2019-01-30T04:39:51.299Z,9.30
2019-01-30T04:40:53.063Z,8.50
2019-01-30T04:41:51.193Z,12.40
2019-01-30T04:42:50.849Z,18.20
2019-01-30T04:43:50.788Z,8.20
2019-01-30T04:44:50.701Z,6.90
2019-01-30T04:45:50.629Z,7.00
2019-01-30T04:46:50.611Z,6.80
2019-01-30T04:47:50.648Z,6.80
2019-01-30T04:48:50.655Z,6.40
2019-01-30T04:49:55.065Z,6.40
2019-01-30T04:50:50.926Z,7.90
2019-01-30T04:51:53.280Z,6.70
2019-01-30T04:52:53.978Z,6.50
2019-01-30T04:53:52.187Z,6.20
2019-01-30T04:54:54.556Z,7.80
2019-01-30T04:55:50.719Z,7.90
2019-01-30T04:56:51.211Z,6.70
2019-01-30T04:57:50.672Z,6.40
2019-01-30T04:58:51.137Z,5.80
2019-01-30T04:59:50.803Z,7.00
2019-01-30T05:00:50.863Z,6.40
2019-01-30T05:01:50.994Z,8.20
2019-01-30T05:02:53.052Z,5.80
2019-01-30T05:03:50.919Z,7.20
2019-01-30T05:04:52.517Z,5.50
2019-01-30T05:05:50.701Z,6.50
2019-01-30T05:06:53.551Z,7.40
2019-01-30T05:07:50.358Z,7.60
2019-01-30T05:08:50.798Z,8.30
2019-01-30T05:09:50.599Z,10.40
2019-01-30T05:10:50.810Z,8.00
2019-01-30T05:11:51.159Z,8.40
2019-01-30T05:12:50.317Z,6.80
2019-01-30T05:13:50.583Z,6.80
2019-01-30T05:14:51.022Z,6.50
2019-01-30T05:15:56.807Z,7.10
2019-01-30T05:16:55.248Z,7.20
2019-01-30T05:17:55.762Z,9.80
2019-01-30T05:18:50.734Z,7.90
2019-01-30T05:19:56.293Z,5.90
2019-01-30T05:20:50.366Z,5.40
2019-01-30T05:21:50.215Z,5.30
2019-01-30T05:22:50.248Z,4.30
2019-01-30T05:23:50.371Z,4.40
2019-01-30T05:24:50.241Z,4.80
2019-01-30T05:25:50.163Z,5.40
2019-01-30T05:26:50.203Z,4.90
2019-01-30T05:27:50.143Z,4.90
2019-01-30T05:28:50.255Z,4.00
2019-01-30T05:29:50.120Z,5.50
2019-01-30T05:30:50.220Z,4.80
2019-01-30T05:32:00.665Z,4.10
2019-01-30T05:32:51.162Z,4.30
2019-01-30T05:33:50.345Z,4.00
2019-01-30T05:34:50.065Z,5.50
2019-01-30T05:35:50.212Z,5.40
2019-01-30T05:36:50.045Z,3.50
2019-01-30T05:37:51.464Z,4.40
2019-01-30T05:38:50.058Z,4.50
2019-01-30T05:39:50.029Z,4.80
2019-01-30T05:40:50.129Z,4.40
2019-01-30T05:41:50.038Z,5.30
2019-01-30T05:42:49.986Z,4.40
2019-01-30T05:43:49.969Z,4.80
2019-01-30T05:44:49.960Z,4.90
2019-01-30T05:45:49.946Z,4.60
2019-01-30T05:46:49.933Z,6.40
2019-01-30T05:47:49.927Z,4.80
2019-01-30T05:48:49.940Z,4.70
2019-01-30T05:49:50.003Z,4.60
2019-01-30T05:50:50.021Z,4.40
2019-01-30T05:51:49.917Z,4.70
2019-01-30T05:52:49.889Z,4.70
2019-01-30T05:53:49.864Z,3.80
2019-01-30T05:54:49.906Z,3.80
2019-01-30T05:55:49.938Z,4.30
2019-01-30T05:56:49.847Z,4.30
2019-01-30T05:57:49.880Z,3.90
2019-01-30T05:58:49.818Z,3.80
2019-01-30T05:59:49.886Z,4.50
2019-01-30T06:00:49.784Z,4.40
2019-01-30T06:01:49.769Z,4.20
2019-01-30T06:02:49.809Z,3.80
2019-01-30T06:03:49.814Z,3.90
2019-01-30T06:04:49.756Z,3.40
2019-01-30T06:05:49.730Z,3.70
2019-01-30T06:06:49.760Z,3.50
2019-01-30T06:07:49.753Z,3.50
2019-01-30T06:08:49.694Z,3.30
2019-01-30T06:09:49.775Z,3.80
2019-01-30T06:10:49.678Z,3.60
2019-01-30T06:11:49.725Z,4.00
2019-01-30T06:12:49.656Z,3.30
2019-01-30T06:13:49.849Z,3.00
2019-01-30T06:14:49.809Z,3.30
2019-01-30T06:15:49.616Z,3.40
2019-01-30T06:16:49.828Z,3.40
2019-01-30T06:17:49.652Z,3.50
2019-01-30T06:18:49.593Z,4.90
2019-01-30T06:19:49.896Z,4.00
2019-01-30T06:20:49.605Z,5.40
2019-01-30T06:21:49.596Z,4.60
2019-01-30T06:22:54.133Z,4.40
2019-01-30T06:23:49.612Z,3.70
2019-01-30T06:24:49.880Z,3.80
2019-01-30T06:25:49.572Z,4.40
2019-01-30T06:26:49.517Z,4.30
2019-01-30T06:27:49.611Z,3.80
2019-01-30T06:28:49.727Z,4.20
2019-01-30T06:29:49.485Z,4.10
2019-01-30T06:30:49.462Z,3.10
2019-01-30T06:31:49.450Z,3.20
2019-01-30T06:32:49.493Z,4.00
2019-01-30T06:33:49.454Z,3.50
2019-01-30T06:34:49.503Z,4.20
2019-01-30T06:35:49.429Z,4.20
2019-01-30T06:36:49.437Z,3.80
2019-01-30T06:37:49.381Z,4.40
2019-01-30T06:38:49.446Z,3.60
2019-01-30T06:39:49.390Z,5.30
2019-01-30T06:40:49.366Z,4.50
2019-01-30T06:41:49.395Z,4.30
2019-01-30T06:42:49.350Z,3.50
2019-01-30T06:43:49.377Z,3.70
2019-01-30T06:44:49.402Z,3.60
2019-01-30T06:45:49.310Z,3.00
2019-01-30T06:46:49.281Z,5.10
2019-01-30T06:47:49.312Z,4.00
2019-01-30T06:48:49.266Z,3.40
2019-01-30T06:49:49.273Z,3.10
2019-01-30T06:50:49.275Z,3.20
2019-01-30T06:51:49.270Z,3.60
2019-01-30T06:52:49.246Z,3.30
2019-01-30T06:53:49.215Z,3.00
2019-01-30T06:54:49.241Z,4.00
2019-01-30T06:55:49.250Z,4.00
2019-01-30T06:56:49.390Z,3.70
2019-01-30T06:57:49.165Z,4.10
2019-01-30T06:58:49.182Z,4.00
2019-01-30T06:59:49.195Z,3.60
2019-01-30T07:00:49.178Z,4.00
2019-01-30T07:01:49.208Z,4.80
2019-01-30T07:02:50.468Z,4.70
2019-01-30T07:03:50.564Z,3.30
2019-01-30T07:04:49.111Z,4.70
2019-01-30T07:05:49.082Z,4.60
2019-01-30T07:06:49.073Z,4.40
2019-01-30T07:07:49.087Z,4.30
2019-01-30T07:08:49.110Z,3.80
2019-01-30T07:09:49.081Z,4.10
2019-01-30T07:10:49.178Z,3.30
2019-01-30T07:11:49.048Z,3.60
2019-01-30T07:12:49.010Z,3.80
2019-01-30T07:13:49.080Z,2.80
2019-01-30T07:14:48.978Z,3.50
2019-01-30T07:15:49.036Z,3.40
2019-01-30T07:16:49.014Z,3.70
2019-01-30T07:17:49.041Z,3.80
2019-01-30T07:18:48.956Z,3.40
2019-01-30T07:19:48.995Z,3.10
2019-01-30T07:20:48.923Z,3.50
2019-01-30T07:21:48.974Z,2.60
2019-01-30T07:22:48.890Z,3.40
2019-01-30T07:23:48.884Z,2.70
2019-01-30T07:24:49.006Z,4.40
2019-01-30T07:25:48.858Z,2.70
2019-01-30T07:26:49.026Z,3.30
2019-01-30T07:27:48.841Z,2.60
2019-01-30T07:28:48.902Z,2.80
2019-01-30T07:29:48.900Z,3.10
2019-01-30T07:30:48.909Z,3.40
2019-01-30T07:31:48.873Z,2.70
2019-01-30T07:32:49.710Z,2.80
2019-01-30T07:33:48.926Z,3.20
2019-01-30T07:34:48.768Z,2.40
2019-01-30T07:35:48.822Z,3.40
2019-01-30T07:36:48.766Z,3.20
2019-01-30T07:37:48.741Z,2.70
2019-01-30T07:38:48.754Z,2.30
2019-01-30T07:39:48.804Z,2.30
2019-01-30T07:40:48.778Z,3.20
2019-01-30T07:41:48.789Z,2.10
2019-01-30T07:42:48.675Z,2.80
2019-01-30T07:44:58.301Z,3.80
2019-01-30T07:45:57.759Z,2.20
2019-01-30T07:47:29.480Z,3.40
2019-01-30T07:48:29.019Z,3.70
2019-01-30T07:49:59.993Z,2.80
2019-01-30T07:50:59.914Z,4.00
2019-01-30T07:51:59.656Z,3.50
2019-01-30T07:53:01.658Z,3.40
2019-01-30T07:53:59.633Z,3.00
2019-01-30T07:55:01.162Z,3.30
2019-01-30T07:56:00.019Z,3.10
2019-01-30T07:57:05.211Z,3.60
2019-01-30T07:57:59.838Z,3.10
2019-01-30T07:58:59.836Z,2.10
2019-01-30T08:00:01.327Z,2.90
2019-01-30T08:01:00.000Z,2.20
2019-01-30T08:02:00.138Z,3.00
2019-01-30T08:02:59.622Z,2.50
2019-01-30T08:03:59.877Z,3.20
2019-01-30T08:04:59.915Z,2.50
2019-01-30T08:05:59.972Z,2.30
2019-01-30T08:06:59.995Z,3.10
2019-01-30T08:08:00.271Z,2.80
2019-01-30T08:08:59.842Z,3.80
2019-01-30T08:09:59.508Z,2.30
2019-01-30T08:11:01.742Z,3.50
2019-01-30T08:11:59.448Z,2.30
2019-01-30T08:13:00.785Z,2.50
2019-01-30T08:14:01.797Z,2.20
2019-01-30T08:14:59.579Z,2.20
2019-01-30T08:15:59.456Z,3.60
2019-01-30T08:16:59.659Z,2.10
2019-01-30T08:17:59.584Z,2.60
2019-01-30T08:18:59.351Z,2.60
2019-01-30T08:19:59.354Z,3.40
2019-01-30T08:20:59.370Z,3.20
2019-01-30T08:21:59.413Z,4.40
2019-01-30T08:22:59.584Z,3.40
2019-01-30T08:23:59.519Z,4.00
2019-01-30T08:24:59.932Z,2.40
2019-01-30T08:25:59.562Z,2.70
2019-01-30T08:26:59.557Z,2.90
2019-01-30T08:27:59.931Z,3.30
2019-01-30T08:28:59.660Z,3.80
2019-01-30T08:29:59.273Z,3.20
2019-01-30T08:30:59.586Z,4.10
2019-01-30T08:31:59.375Z,3.60
2019-01-30T08:33:04.874Z,2.70
2019-01-30T08:34:00.190Z,3.10
2019-01-30T08:34:59.192Z,4.70
2019-01-30T08:35:59.387Z,4.20
2019-01-30T08:36:59.163Z,4.30
2019-01-30T08:37:59.204Z,4.50
2019-01-30T08:38:59.198Z,3.50
2019-01-30T08:39:59.125Z,3.70
2019-01-30T08:40:59.113Z,4.10
2019-01-30T08:41:59.097Z,3.40
2019-01-30T08:42:59.129Z,3.70
2019-01-30T08:43:59.298Z,2.90
2019-01-30T08:44:59.049Z,4.00
2019-01-30T08:45:59.042Z,3.00
2019-01-30T08:46:59.039Z,3.40
2019-01-30T08:47:59.084Z,3.50
2019-01-30T08:48:59.075Z,3.10
2019-01-30T08:49:59.070Z,3.60
2019-01-30T08:50:59.161Z,3.10
2019-01-30T08:51:59.560Z,3.00
2019-01-30T08:52:58.986Z,3.30
2019-01-30T08:53:58.954Z,3.30
2019-01-30T08:54:59.309Z,2.90
2019-01-30T08:55:59.235Z,2.70
2019-01-30T08:56:59.044Z,4.50
2019-01-30T08:57:58.946Z,3.30
2019-01-30T08:58:58.908Z,3.10
2019-01-30T08:59:58.894Z,3.30
2019-01-30T09:00:58.908Z,3.80
2019-01-30T09:01:58.905Z,3.70
2019-01-30T09:02:58.884Z,3.40
2019-01-30T09:03:59.114Z,4.10
2019-01-30T09:04:58.904Z,3.50
2019-01-30T09:05:58.932Z,3.00
2019-01-30T09:06:58.820Z,3.20
2019-01-30T09:07:58.819Z,3.40
2019-01-30T09:08:58.855Z,3.80
2019-01-30T09:09:58.787Z,2.80
2019-01-30T09:10:58.846Z,3.20
2019-01-30T09:11:58.940Z,3.60
2019-01-30T09:12:58.799Z,3.10
2019-01-30T09:13:58.791Z,8.70
2019-01-30T09:14:58.950Z,5.70
2019-01-30T09:15:58.786Z,3.90
2019-01-30T09:16:58.701Z,4.10
2019-01-30T09:17:58.734Z,2.90
2019-01-30T09:19:00.389Z,3.30
2019-01-30T09:19:58.660Z,3.70
2019-01-30T09:20:58.668Z,4.00
2019-01-30T09:21:58.637Z,6.50
2019-01-30T09:22:58.629Z,3.60
2019-01-30T09:23:58.627Z,5.10
2019-01-30T09:24:58.614Z,3.30
2019-01-30T09:25:58.743Z,4.50
2019-01-30T09:26:58.586Z,3.60
2019-01-30T09:27:58.580Z,2.60
2019-01-30T09:28:58.805Z,2.80
2019-01-30T09:29:58.682Z,3.40
2019-01-30T09:30:58.645Z,2.50
2019-01-30T09:31:58.823Z,2.90
2019-01-30T09:32:58.808Z,3.30
2019-01-30T09:33:58.553Z,3.70
2019-01-30T09:35:01.899Z,3.40
2019-01-30T09:35:58.666Z,3.30
2019-01-30T09:36:58.513Z,4.30
2019-01-30T09:37:58.654Z,3.70
2019-01-30T09:38:58.595Z,3.50
2019-01-30T09:39:58.480Z,3.60
2019-01-30T09:40:58.442Z,5.10
2019-01-30T09:41:58.421Z,4.00
2019-01-30T09:42:58.433Z,3.90
2019-01-30T09:43:58.441Z,3.20
2019-01-30T09:44:58.446Z,3.80
2019-01-30T09:45:58.388Z,4.50
2019-01-30T09:46:58.372Z,4.20
2019-01-30T09:47:58.879Z,4.10
2019-01-30T09:48:58.431Z,4.00
2019-01-30T09:49:58.496Z,5.40
2019-01-30T09:50:58.513Z,3.80
2019-01-30T09:51:58.705Z,4.30
2019-01-30T09:52:58.369Z,3.70
2019-01-30T09:53:58.437Z,4.00
2019-01-30T09:54:58.516Z,4.40
2019-01-30T09:55:58.278Z,3.90
2019-01-30T09:56:58.318Z,4.70
2019-01-30T09:57:58.267Z,4.70
2019-01-30T09:58:58.419Z,4.10
2019-01-30T09:59:58.252Z,4.50
2019-01-30T10:00:58.284Z,5.60
2019-01-30T10:01:58.728Z,5.00
2019-01-30T10:02:58.473Z,4.80
2019-01-30T10:03:58.211Z,5.00
2019-01-30T10:04:58.282Z,6.90
2019-01-30T10:05:58.160Z,5.40
2019-01-30T10:06:58.246Z,5.40
2019-01-30T10:07:58.140Z,6.40
2019-01-30T10:08:58.406Z,5.90
2019-01-30T10:09:58.233Z,4.60
2019-01-30T10:10:58.252Z,6.00
2019-01-30T10:11:58.240Z,5.10
2019-01-30T10:12:58.125Z,6.40
2019-01-30T10:13:58.107Z,5.60
2019-01-30T10:14:58.359Z,8.80
2019-01-30T10:15:58.047Z,5.20
2019-01-30T10:16:58.100Z,6.00
2019-01-30T10:17:59.808Z,5.90
2019-01-30T10:18:58.089Z,6.30
2019-01-30T10:20:01.695Z,7.00
2019-01-30T10:20:59.042Z,106.80
2019-01-30T10:21:58.195Z,46.40
2019-01-30T10:22:58.076Z,7.70
2019-01-30T10:23:57.970Z,23.70
2019-01-30T10:24:58.213Z,120.70
2019-01-30T10:25:58.022Z,82.20
2019-01-30T10:26:57.971Z,6.70
2019-01-30T10:27:58.186Z,6.90
2019-01-30T10:28:58.041Z,6.10
2019-01-30T10:29:58.850Z,5.30
2019-01-30T10:30:57.945Z,7.60
2019-01-30T10:31:57.954Z,6.00
2019-01-30T10:32:58.751Z,6.70
2019-01-30T10:33:57.914Z,5.30
2019-01-30T10:34:59.874Z,6.20
2019-01-30T10:36:03.233Z,5.30
2019-01-30T10:36:57.844Z,5.50
2019-01-30T10:37:59.549Z,5.90
2019-01-30T10:38:57.923Z,5.30
2019-01-30T10:39:58.188Z,6.90
2019-01-30T10:40:57.793Z,6.20
2019-01-30T10:41:57.891Z,7.00
2019-01-30T10:42:57.757Z,7.70
2019-01-30T10:43:57.940Z,5.90
2019-01-30T10:44:58.639Z,6.10
2019-01-30T10:45:57.740Z,5.30
2019-01-30T10:46:58.436Z,5.90
2019-01-30T10:47:57.695Z,5.90
2019-01-30T10:48:57.902Z,5.30
2019-01-30T10:49:57.780Z,4.30
2019-01-30T10:50:57.858Z,5.40
2019-01-30T10:51:57.896Z,5.70
2019-01-30T10:52:57.699Z,6.60
2019-01-30T10:53:57.701Z,6.20
2019-01-30T10:54:57.671Z,5.30
2019-01-30T10:55:59.200Z,5.20
2019-01-30T10:56:57.667Z,4.80
2019-01-30T10:57:57.759Z,5.20
2019-01-30T10:59:01.716Z,5.50
2019-01-30T10:59:57.733Z,6.70
2019-01-30T11:00:57.640Z,5.80
2019-01-30T11:01:58.561Z,4.90
2019-01-30T11:02:57.624Z,6.10
2019-01-30T11:03:57.744Z,4.90
2019-01-30T11:04:57.591Z,4.60
2019-01-30T11:05:57.506Z,4.70
2019-01-30T11:06:57.639Z,5.80
2019-01-30T11:07:57.515Z,4.60
2019-01-30T11:08:57.565Z,6.50
2019-01-30T11:09:57.522Z,5.50
2019-01-30T11:11:07.271Z,5.80
2019-01-30T11:11:58.595Z,5.50
2019-01-30T11:12:57.427Z,5.10
2019-01-30T11:13:57.478Z,6.80
2019-01-30T11:14:57.428Z,5.30
2019-01-30T11:15:57.512Z,5.50
2019-01-30T11:16:57.391Z,7.60
2019-01-30T11:17:57.383Z,6.40
2019-01-30T11:18:57.374Z,6.10
2019-01-30T11:19:57.522Z,6.40
2019-01-30T11:20:57.358Z,6.60
2019-01-30T11:21:57.579Z,5.50
2019-01-30T11:22:57.358Z,5.10
2019-01-30T11:23:57.386Z,5.20
2019-01-30T11:24:57.327Z,6.20
2019-01-30T11:25:57.295Z,5.10
2019-01-30T11:26:57.271Z,5.60
2019-01-30T11:27:59.037Z,6.20
2019-01-30T11:28:59.454Z,6.80
2019-01-30T11:29:58.362Z,5.10
2019-01-30T11:30:59.513Z,6.10
2019-01-30T11:31:57.222Z,5.60
2019-01-30T11:32:57.206Z,4.40
2019-01-30T11:34:07.046Z,5.80
2019-01-30T11:34:58.337Z,5.00
2019-01-30T11:35:57.166Z,6.80
2019-01-30T11:37:00.040Z,5.00
2019-01-30T11:37:57.268Z,5.40
2019-01-30T11:38:57.188Z,6.70
2019-01-30T11:39:57.402Z,5.70
2019-01-30T11:40:58.123Z,5.00
2019-01-30T11:41:57.246Z,4.80
2019-01-30T11:42:57.180Z,4.90
2019-01-30T11:43:57.181Z,6.20
2019-01-30T11:44:57.658Z,6.60
2019-01-30T11:45:57.638Z,4.40
2019-01-30T11:46:57.345Z,5.50
2019-01-30T11:47:57.203Z,5.30
2019-01-30T11:48:58.494Z,6.30
2019-01-30T11:49:58.951Z,6.00
2019-01-30T11:50:57.360Z,4.80
2019-01-30T11:51:57.184Z,5.20
2019-01-30T11:52:57.696Z,5.20
2019-01-30T11:53:57.479Z,5.50
2019-01-30T11:54:57.071Z,6.70
2019-01-30T11:55:56.999Z,6.70
2019-01-30T11:56:57.021Z,6.60
2019-01-30T11:57:57.014Z,5.40
2019-01-30T11:58:56.946Z,5.70
2019-01-30T11:59:57.030Z,5.00
2019-01-30T12:00:57.105Z,6.90
2019-01-30T12:02:00.700Z,5.70
2019-01-30T12:02:56.997Z,5.80
2019-01-30T12:03:56.899Z,5.90
2019-01-30T12:04:56.856Z,6.60
2019-01-30T12:05:58.799Z,5.80
2019-01-30T12:06:57.075Z,6.60
2019-01-30T12:07:57.895Z,6.00
2019-01-30T12:08:56.907Z,5.80
2019-01-30T12:09:56.893Z,5.70
2019-01-30T12:10:56.889Z,4.10
2019-01-30T12:11:56.775Z,4.70
2019-01-30T12:12:56.768Z,5.70
2019-01-30T12:13:56.788Z,6.10
2019-01-30T12:14:56.776Z,5.20
2019-01-30T12:15:56.745Z,5.70
2019-01-30T12:16:56.930Z,6.60
2019-01-30T12:18:00.583Z,6.00
2019-01-30T12:18:56.719Z,5.10
2019-01-30T12:19:56.783Z,6.00
2019-01-30T12:20:56.675Z,7.80
2019-01-30T12:21:56.691Z,5.50
2019-01-30T12:22:56.666Z,6.50
2019-01-30T12:23:56.670Z,5.30
2019-01-30T12:24:56.654Z,7.00
2019-01-30T12:25:56.621Z,6.80
2019-01-30T12:26:56.666Z,7.50
2019-01-30T12:27:56.602Z,6.00
2019-01-30T12:28:56.609Z,6.50
2019-01-30T12:29:56.807Z,7.00
2019-01-30T12:30:56.648Z,6.30
2019-01-30T12:31:56.591Z,6.50
2019-01-30T12:32:56.545Z,6.00
2019-01-30T12:33:59.059Z,6.90
2019-01-30T12:34:56.856Z,6.70
2019-01-30T12:35:56.565Z,8.30
2019-01-30T12:36:56.536Z,7.40
2019-01-30T12:37:56.498Z,7.70
2019-01-30T12:38:56.515Z,7.90
2019-01-30T12:39:56.487Z,7.10
2019-01-30T12:40:56.472Z,6.70
2019-01-30T12:41:56.470Z,5.80
2019-01-30T12:42:56.486Z,7.00
2019-01-30T12:43:56.637Z,6.60
2019-01-30T12:44:57.130Z,6.60
2019-01-30T12:45:56.482Z,7.00
2019-01-30T12:46:56.410Z,6.20
2019-01-30T12:47:56.419Z,7.40
2019-01-30T12:48:56.464Z,6.90
2019-01-30T12:49:56.457Z,6.00
2019-01-30T12:50:56.421Z,6.80
2019-01-30T12:51:56.441Z,5.70
2019-01-30T12:52:56.417Z,5.90
2019-01-30T12:53:56.355Z,7.40
2019-01-30T12:54:56.342Z,8.20
2019-01-30T12:55:56.334Z,7.30
2019-01-30T12:56:56.525Z,6.80
2019-01-30T12:57:56.293Z,6.30
2019-01-30T12:58:56.287Z,6.00
2019-01-30T12:59:56.309Z,7.60
2019-01-30T13:00:56.258Z,5.50
2019-01-30T13:01:56.266Z,5.20
2019-01-30T13:02:56.455Z,5.50
2019-01-30T13:03:56.225Z,4.80
2019-01-30T13:04:56.475Z,6.70
2019-01-30T13:05:56.194Z,5.40
2019-01-30T13:06:56.234Z,5.30
2019-01-30T13:07:56.300Z,7.70
2019-01-30T13:08:56.227Z,14.90
2019-01-30T13:09:56.162Z,21.70
2019-01-30T13:10:56.347Z,17.50
2019-01-30T13:11:56.190Z,9.50
2019-01-30T13:12:56.325Z,7.50
2019-01-30T13:13:56.301Z,5.40
2019-01-30T13:14:56.096Z,6.00
2019-01-30T13:15:56.172Z,7.10
2019-01-30T13:16:56.102Z,6.10